EXS1641 EGSS-LGSK
Flight info
| Callsign | EXS1641 |
|---|---|
| Flight time | 2h 58m |
| Altitude | 37000 |
| Route | CLN5S CLN M84 KONAN DCT KOK DCT SISGA DCT RITAX DCT EDISA DCT KUNOD DCT GEDSO DCT VEKEN DCT NEMEK DCT TUPUS DCT MONID DCT IDASI DCT EDALA DCT SOLGU DCT OSLUD DCT MEDUX UM867 KOGAT DCT ERANA UL737 TSL UL617 IBIDI IBIDI1C |
| Aircraft | B738/M-SDE2E3FGHIRWXY/LB1 |
Departure
| Time | 2026-05-04 07:26 |
|---|---|
| Airport | London Stansted Airport (EGSS) |
Arrival
| Time | 2026-05-04 10:25 |
|---|---|
| Airport | Skiathos Island National Airport (LGSK) |
| Time | Latitude | Longitude | Altitude | Speed | Heading |
|---|---|---|---|---|---|
| 2026-05-04 06:42 | 51.88794 | 0.25485 | 340 ft | 0 kts | 43° |
| 2026-05-04 06:44 | 51.88772 | 0.25535 | 350 ft | 0 kts | 43° |
| 2026-05-04 07:12 | 51.88759 | 0.25515 | 353 ft | 4 kts | 43° |
| 2026-05-04 07:12 | 51.88744 | 0.25493 | 353 ft | 4 kts | 56° |
| 2026-05-04 07:12 | 51.88737 | 0.25457 | 356 ft | 3 kts | 82° |
| 2026-05-04 07:13 | 51.88730 | 0.25419 | 356 ft | 4 kts | 40° |
| 2026-05-04 07:13 | 51.88713 | 0.25412 | 357 ft | 4 kts | 318° |
| 2026-05-04 07:13 | 51.88696 | 0.25441 | 358 ft | 2 kts | 313° |
| 2026-05-04 07:14 | 51.88695 | 0.25443 | 358 ft | 1 kts | 313° |
| 2026-05-04 07:17 | 51.88705 | 0.25425 | 358 ft | 6 kts | 313° |
| 2026-05-04 07:17 | 51.88745 | 0.25355 | 358 ft | 9 kts | 313° |
| 2026-05-04 07:18 | 51.88788 | 0.25282 | 353 ft | 9 kts | 313° |
| 2026-05-04 07:18 | 51.88834 | 0.25203 | 348 ft | 12 kts | 313° |
| 2026-05-04 07:18 | 51.88894 | 0.25098 | 351 ft | 13 kts | 313° |
| 2026-05-04 07:18 | 51.88953 | 0.24996 | 351 ft | 12 kts | 313° |
| 2026-05-04 07:19 | 51.88999 | 0.24883 | 355 ft | 12 kts | 307° |
| 2026-05-04 07:19 | 51.89024 | 0.24767 | 349 ft | 12 kts | 244° |
| 2026-05-04 07:19 | 51.88971 | 0.24671 | 350 ft | 11 kts | 222° |
| 2026-05-04 07:19 | 51.88914 | 0.24587 | 354 ft | 11 kts | 223° |
| 2026-05-04 07:20 | 51.88857 | 0.24500 | 351 ft | 13 kts | 223° |
| 2026-05-04 07:20 | 51.88773 | 0.24373 | 350 ft | 20 kts | 223° |
| 2026-05-04 07:20 | 51.88659 | 0.24203 | 356 ft | 23 kts | 223° |
| 2026-05-04 07:20 | 51.88543 | 0.24029 | 357 ft | 22 kts | 223° |
| 2026-05-04 07:22 | 51.87831 | 0.22966 | 348 ft | 12 kts | 225° |
| 2026-05-04 07:22 | 51.87840 | 0.22850 | 352 ft | 12 kts | 315° |
| 2026-05-04 07:23 | 51.87902 | 0.22739 | 336 ft | 15 kts | 309° |
| 2026-05-04 07:23 | 51.87951 | 0.22665 | 345 ft | 7 kts | 358° |
| 2026-05-04 07:23 | 51.87980 | 0.22697 | 337 ft | 0 kts | 44° |
| 2026-05-04 07:24 | 51.87981 | 0.22698 | 337 ft | 1 kts | 44° |
| 2026-05-04 07:24 | 51.88029 | 0.22773 | 335 ft | 32 kts | 43° |
| 2026-05-04 07:25 | 51.88373 | 0.23288 | 340 ft | 101 kts | 42° |
| 2026-05-04 07:26 | 51.90542 | 0.35441 | 3626 ft | 208 kts | 116° |
| 2026-05-04 07:27 | 51.89886 | 0.37548 | 3205 ft | 213 kts | 112° |
| 2026-05-04 07:27 | 51.89527 | 0.39877 | 2776 ft | 219 kts | 95° |
| 2026-05-04 07:27 | 51.89394 | 0.42344 | 3044 ft | 224 kts | 94° |
| 2026-05-04 07:27 | 51.89286 | 0.44930 | 3611 ft | 239 kts | 93° |
| 2026-05-04 07:28 | 51.89170 | 0.47766 | 3966 ft | 262 kts | 94° |
| 2026-05-04 07:28 | 51.89032 | 0.50741 | 4730 ft | 268 kts | 94° |
| 2026-05-04 07:28 | 51.88875 | 0.53756 | 5511 ft | 271 kts | 95° |
| 2026-05-04 07:28 | 51.88705 | 0.56769 | 5908 ft | 274 kts | 96° |
| 2026-05-04 07:29 | 51.88519 | 0.59868 | 6368 ft | 279 kts | 96° |
| 2026-05-04 07:29 | 51.88325 | 0.62989 | 7236 ft | 279 kts | 97° |
| 2026-05-04 07:29 | 51.88123 | 0.66142 | 7985 ft | 283 kts | 97° |
| 2026-05-04 07:29 | 51.87916 | 0.69326 | 8802 ft | 286 kts | 97° |
| 2026-05-04 07:30 | 51.87703 | 0.72556 | 9560 ft | 291 kts | 97° |
| 2026-05-04 07:30 | 51.87485 | 0.75827 | 10292 ft | 295 kts | 97° |
| 2026-05-04 07:30 | 51.87254 | 0.79250 | 10535 ft | 318 kts | 97° |
| 2026-05-04 07:30 | 51.87007 | 0.82881 | 10765 ft | 338 kts | 97° |
| 2026-05-04 07:31 | 51.86746 | 0.86718 | 11324 ft | 347 kts | 97° |
| 2026-05-04 07:31 | 51.86480 | 0.90622 | 12033 ft | 351 kts | 97° |
| 2026-05-04 07:33 | 51.82376 | 1.17530 | 16661 ft | 365 kts | 145° |
| 2026-05-04 07:33 | 51.80279 | 1.19847 | 17325 ft | 366 kts | 149° |
| 2026-05-04 07:33 | 51.78128 | 1.22072 | 17930 ft | 370 kts | 150° |
| 2026-05-04 07:33 | 51.75941 | 1.24314 | 18514 ft | 373 kts | 149° |
| 2026-05-04 07:34 | 51.73748 | 1.26584 | 19043 ft | 377 kts | 149° |
| 2026-05-04 07:34 | 51.71538 | 1.28898 | 19577 ft | 380 kts | 149° |
| 2026-05-04 07:34 | 51.69312 | 1.31238 | 20088 ft | 384 kts | 150° |
| 2026-05-04 07:34 | 51.67054 | 1.33575 | 20604 ft | 386 kts | 153° |
| 2026-05-04 07:35 | 51.64645 | 1.35330 | 21080 ft | 386 kts | 165° |
| 2026-05-04 07:35 | 51.62044 | 1.36364 | 21602 ft | 385 kts | 175° |
| 2026-05-04 07:35 | 51.59380 | 1.36670 | 22121 ft | 385 kts | 181° |
| 2026-05-04 07:35 | 51.56698 | 1.36777 | 22626 ft | 387 kts | 182° |
| 2026-05-04 07:36 | 51.53995 | 1.36877 | 23116 ft | 391 kts | 182° |
| 2026-05-04 07:36 | 51.51270 | 1.37014 | 23590 ft | 394 kts | 182° |
| 2026-05-04 07:38 | 51.35650 | 1.53426 | 26693 ft | 427 kts | 132° |
| 2026-05-04 07:38 | 51.33869 | 1.57216 | 27095 ft | 427 kts | 133° |
| 2026-05-04 07:38 | 51.32077 | 1.60988 | 27502 ft | 428 kts | 133° |
| 2026-05-04 07:38 | 51.30253 | 1.64786 | 27904 ft | 429 kts | 134° |
| 2026-05-04 07:39 | 51.28432 | 1.68555 | 28291 ft | 429 kts | 134° |
| 2026-05-04 07:39 | 51.26600 | 1.72333 | 28664 ft | 430 kts | 134° |
| 2026-05-04 07:39 | 51.24791 | 1.76054 | 29031 ft | 431 kts | 134° |
| 2026-05-04 07:39 | 51.22942 | 1.79852 | 29383 ft | 432 kts | 134° |
| 2026-05-04 07:40 | 51.21095 | 1.83643 | 29736 ft | 433 kts | 135° |
| 2026-05-04 07:40 | 51.19249 | 1.87431 | 30074 ft | 434 kts | 135° |
| 2026-05-04 07:40 | 51.17389 | 1.91239 | 30326 ft | 436 kts | 135° |
| 2026-05-04 07:40 | 51.15538 | 1.95091 | 30517 ft | 441 kts | 131° |
| 2026-05-04 07:41 | 51.14022 | 1.99415 | 30706 ft | 454 kts | 120° |
| 2026-05-04 07:41 | 51.12980 | 2.04133 | 30989 ft | 462 kts | 110° |
| 2026-05-04 07:41 | 51.12442 | 2.09211 | 31307 ft | 470 kts | 101° |
| 2026-05-04 07:41 | 51.12174 | 2.14404 | 31615 ft | 470 kts | 99° |
| 2026-05-04 07:42 | 51.11952 | 2.19597 | 31856 ft | 472 kts | 99° |
| 2026-05-04 07:42 | 51.11723 | 2.24812 | 32101 ft | 473 kts | 99° |
| 2026-05-04 07:42 | 51.11472 | 2.30031 | 32387 ft | 472 kts | 100° |
| 2026-05-04 07:42 | 51.11200 | 2.35234 | 32678 ft | 472 kts | 100° |
| 2026-05-04 07:43 | 51.10913 | 2.40433 | 32949 ft | 472 kts | 100° |
| 2026-05-04 07:43 | 51.10619 | 2.45633 | 33190 ft | 472 kts | 100° |
| 2026-05-04 07:43 | 51.10324 | 2.50829 | 33454 ft | 472 kts | 100° |
| 2026-05-04 07:43 | 51.10028 | 2.56037 | 33728 ft | 472 kts | 100° |
| 2026-05-04 07:44 | 51.09686 | 2.61155 | 33970 ft | 470 kts | 105° |
| 2026-05-04 07:44 | 51.08939 | 2.66170 | 34168 ft | 463 kts | 114° |
| 2026-05-04 07:44 | 51.07752 | 2.70878 | 34395 ft | 455 kts | 123° |
| 2026-05-04 07:44 | 51.06277 | 2.75312 | 34651 ft | 452 kts | 124° |
| 2026-05-04 07:45 | 51.04781 | 2.79705 | 34861 ft | 452 kts | 124° |
| 2026-05-04 07:45 | 51.03281 | 2.84098 | 35045 ft | 452 kts | 124° |
| 2026-05-04 07:45 | 51.01786 | 2.88497 | 35257 ft | 452 kts | 123° |
| 2026-05-04 07:45 | 51.00322 | 2.92837 | 35490 ft | 451 kts | 123° |
| 2026-05-04 07:46 | 50.98847 | 2.97226 | 35692 ft | 451 kts | 123° |
| 2026-05-04 07:46 | 50.97376 | 3.01615 | 35868 ft | 451 kts | 123° |
| 2026-05-04 07:46 | 50.95900 | 3.06017 | 36059 ft | 451 kts | 123° |
| 2026-05-04 07:46 | 50.94429 | 3.10403 | 36238 ft | 451 kts | 123° |
| 2026-05-04 07:47 | 50.92956 | 3.14787 | 36439 ft | 450 kts | 123° |
| 2026-05-04 07:47 | 50.91481 | 3.19168 | 36614 ft | 450 kts | 123° |
| 2026-05-04 07:47 | 50.90007 | 3.23534 | 36811 ft | 449 kts | 122° |
| 2026-05-04 07:49 | 50.79671 | 3.53954 | 36976 ft | 445 kts | 123° |
| 2026-05-04 07:49 | 50.76752 | 3.62478 | 36980 ft | 443 kts | 123° |
| 2026-05-04 07:50 | 50.73819 | 3.71012 | 36981 ft | 442 kts | 123° |
| 2026-05-04 07:50 | 50.70882 | 3.79528 | 36989 ft | 442 kts | 123° |
| 2026-05-04 07:51 | 50.67933 | 3.88052 | 36984 ft | 443 kts | 123° |
| 2026-05-04 07:51 | 50.65006 | 3.96491 | 36995 ft | 444 kts | 123° |
| 2026-05-04 07:52 | 50.62019 | 4.05069 | 36995 ft | 446 kts | 123° |
| 2026-05-04 07:52 | 50.59249 | 4.13856 | 36994 ft | 450 kts | 120° |
| 2026-05-04 07:54 | 50.48609 | 4.49602 | 36997 ft | 453 kts | 120° |
| 2026-05-04 07:55 | 50.45897 | 4.58532 | 36992 ft | 453 kts | 120° |
| 2026-05-04 07:55 | 50.43184 | 4.67434 | 36990 ft | 452 kts | 121° |
| 2026-05-04 07:56 | 50.40480 | 4.76273 | 36984 ft | 452 kts | 121° |
| 2026-05-04 07:56 | 50.37761 | 4.85133 | 36988 ft | 450 kts | 121° |
| 2026-05-04 07:57 | 50.35046 | 4.93949 | 37007 ft | 449 kts | 121° |
| 2026-05-04 07:57 | 50.32327 | 5.02740 | 37000 ft | 448 kts | 121° |
| 2026-05-04 07:58 | 50.29626 | 5.11445 | 37007 ft | 447 kts | 121° |
| 2026-05-04 07:58 | 50.26905 | 5.20183 | 37004 ft | 447 kts | 121° |
| 2026-05-04 07:59 | 50.24182 | 5.28899 | 37003 ft | 446 kts | 121° |
| 2026-05-04 07:59 | 50.21449 | 5.37612 | 36996 ft | 447 kts | 121° |
| 2026-05-04 08:00 | 50.18709 | 5.46319 | 37001 ft | 447 kts | 121° |
| 2026-05-04 08:02 | 50.07625 | 5.81183 | 36997 ft | 451 kts | 124° |
| 2026-05-04 08:02 | 50.04329 | 5.89448 | 36998 ft | 448 kts | 128° |
| 2026-05-04 08:03 | 50.00900 | 5.97458 | 37003 ft | 448 kts | 129° |
| 2026-05-04 08:03 | 49.97460 | 6.05535 | 36990 ft | 448 kts | 128° |
| 2026-05-04 08:04 | 49.94044 | 6.13638 | 36994 ft | 448 kts | 128° |
| 2026-05-04 08:04 | 49.91219 | 6.20355 | 36997 ft | 447 kts | 128° |
| 2026-05-04 08:05 | 49.87271 | 6.29725 | 37001 ft | 446 kts | 128° |
| 2026-05-04 08:05 | 49.83871 | 6.37764 | 36994 ft | 445 kts | 128° |
| 2026-05-04 08:06 | 49.80477 | 6.45762 | 36988 ft | 444 kts | 128° |
| 2026-05-04 08:06 | 49.77081 | 6.53740 | 37005 ft | 444 kts | 128° |
| 2026-05-04 08:08 | 49.65578 | 6.80572 | 36994 ft | 460 kts | 128° |
| 2026-05-04 08:08 | 49.63802 | 6.84695 | 37005 ft | 462 kts | 128° |
| 2026-05-04 08:11 | 49.47708 | 7.21762 | 37013 ft | 462 kts | 128° |
| 2026-05-04 08:11 | 49.42322 | 7.34047 | 37007 ft | 461 kts | 129° |
| 2026-05-04 08:12 | 49.38754 | 7.42155 | 37011 ft | 461 kts | 129° |
| 2026-05-04 08:12 | 49.35160 | 7.50296 | 37012 ft | 461 kts | 129° |
| 2026-05-04 08:13 | 49.31568 | 7.58408 | 37006 ft | 461 kts | 129° |
| 2026-05-04 08:13 | 49.27951 | 7.66553 | 37011 ft | 461 kts | 129° |
| 2026-05-04 08:14 | 49.24341 | 7.74658 | 37013 ft | 461 kts | 129° |
| 2026-05-04 08:16 | 49.09861 | 8.06922 | 37020 ft | 460 kts | 129° |
| 2026-05-04 08:16 | 49.06263 | 8.14882 | 37021 ft | 460 kts | 129° |
| 2026-05-04 08:17 | 49.02619 | 8.22920 | 37017 ft | 460 kts | 129° |
| 2026-05-04 08:17 | 48.98976 | 8.30930 | 37017 ft | 460 kts | 129° |
| 2026-05-04 08:19 | 48.83810 | 8.62017 | 37016 ft | 459 kts | 130° |
| 2026-05-04 08:20 | 48.79995 | 8.69784 | 37015 ft | 459 kts | 131° |
| 2026-05-04 08:20 | 48.76179 | 8.77530 | 37020 ft | 459 kts | 131° |
| 2026-05-04 08:21 | 48.72351 | 8.85280 | 37008 ft | 459 kts | 130° |
| 2026-05-04 08:21 | 48.68540 | 8.92969 | 37012 ft | 460 kts | 131° |
| 2026-05-04 08:22 | 48.64692 | 9.00712 | 37022 ft | 461 kts | 131° |
| 2026-05-04 08:24 | 48.49232 | 9.31603 | 37013 ft | 462 kts | 131° |
| 2026-05-04 08:24 | 48.45341 | 9.39322 | 37021 ft | 463 kts | 131° |
| 2026-05-04 08:25 | 48.41443 | 9.47034 | 37027 ft | 463 kts | 131° |
| 2026-05-04 08:25 | 48.37562 | 9.54692 | 37042 ft | 463 kts | 131° |
| 2026-05-04 08:27 | 48.22432 | 9.83218 | 37045 ft | 461 kts | 133° |
| 2026-05-04 08:28 | 48.18387 | 9.90676 | 37051 ft | 461 kts | 133° |
| 2026-05-04 08:28 | 48.14345 | 9.98126 | 37042 ft | 461 kts | 133° |
| 2026-05-04 08:29 | 48.10299 | 10.05568 | 37048 ft | 461 kts | 133° |
| 2026-05-04 08:31 | 47.94089 | 10.35168 | 37046 ft | 461 kts | 133° |
| 2026-05-04 08:33 | 47.77796 | 10.64597 | 37048 ft | 461 kts | 133° |
| 2026-05-04 08:35 | 47.61396 | 10.93898 | 37035 ft | 462 kts | 133° |
| 2026-05-04 08:35 | 47.57302 | 11.01163 | 37041 ft | 463 kts | 133° |
| 2026-05-04 08:37 | 47.42818 | 11.26712 | 37056 ft | 463 kts | 133° |
| 2026-05-04 08:38 | 47.38688 | 11.33953 | 37023 ft | 465 kts | 133° |
| 2026-05-04 08:38 | 47.34523 | 11.41237 | 37071 ft | 465 kts | 133° |
| 2026-05-04 08:40 | 47.17841 | 11.70213 | 37053 ft | 463 kts | 133° |
| 2026-05-04 08:41 | 47.13676 | 11.77404 | 37083 ft | 462 kts | 133° |
| 2026-05-04 08:41 | 47.09506 | 11.84587 | 37097 ft | 462 kts | 132° |
| 2026-05-04 08:42 | 47.06077 | 11.92595 | 37097 ft | 465 kts | 118° |
| 2026-05-04 08:42 | 47.03298 | 12.01102 | 37092 ft | 467 kts | 117° |
| 2026-05-04 08:43 | 47.00489 | 12.09688 | 37111 ft | 467 kts | 117° |
| 2026-05-04 08:43 | 46.97635 | 12.18242 | 37134 ft | 468 kts | 118° |
| 2026-05-04 08:44 | 46.94749 | 12.26799 | 37141 ft | 469 kts | 118° |
| 2026-05-04 08:46 | 46.83171 | 12.60827 | 37125 ft | 467 kts | 118° |
| 2026-05-04 08:46 | 46.80264 | 12.69306 | 37103 ft | 468 kts | 118° |
| 2026-05-04 08:47 | 46.77363 | 12.77738 | 37095 ft | 468 kts | 118° |
| 2026-05-04 08:47 | 46.74436 | 12.86220 | 37095 ft | 468 kts | 118° |
| 2026-05-04 08:48 | 46.71501 | 12.94695 | 37090 ft | 468 kts | 118° |
| 2026-05-04 08:48 | 46.68561 | 13.03162 | 37101 ft | 468 kts | 118° |
| 2026-05-04 08:49 | 46.65636 | 13.11556 | 37105 ft | 468 kts | 118° |
| 2026-05-04 08:50 | 46.55068 | 13.40893 | 37106 ft | 466 kts | 126° |
| 2026-05-04 08:51 | 46.51277 | 13.48457 | 37109 ft | 466 kts | 128° |
| 2026-05-04 08:51 | 46.47398 | 13.56001 | 37107 ft | 466 kts | 128° |
| 2026-05-04 08:52 | 46.43549 | 13.63575 | 37116 ft | 467 kts | 128° |
| 2026-05-04 08:52 | 46.39718 | 13.71171 | 37104 ft | 467 kts | 128° |
| 2026-05-04 08:54 | 46.24356 | 14.01507 | 37116 ft | 469 kts | 128° |
| 2026-05-04 08:55 | 46.20511 | 14.09044 | 37128 ft | 470 kts | 128° |
| 2026-05-04 08:55 | 46.16629 | 14.16636 | 37126 ft | 470 kts | 128° |
| 2026-05-04 09:01 | 45.75386 | 14.96037 | 37124 ft | 475 kts | 128° |
| 2026-05-04 09:01 | 45.71404 | 15.03587 | 37117 ft | 475 kts | 128° |
| 2026-05-04 09:02 | 45.67440 | 15.11083 | 37126 ft | 475 kts | 128° |
| 2026-05-04 09:02 | 45.63448 | 15.18614 | 37129 ft | 476 kts | 128° |
| 2026-05-04 09:03 | 45.59446 | 15.26145 | 37130 ft | 476 kts | 128° |
| 2026-05-04 09:03 | 45.55378 | 15.33615 | 37128 ft | 476 kts | 130° |
| 2026-05-04 09:04 | 45.51077 | 15.40797 | 37131 ft | 476 kts | 131° |
| 2026-05-04 09:04 | 45.46769 | 15.47900 | 37133 ft | 477 kts | 131° |
| 2026-05-04 09:05 | 45.42455 | 15.55092 | 37127 ft | 478 kts | 131° |
| 2026-05-04 09:05 | 45.38169 | 15.62265 | 37126 ft | 479 kts | 130° |
| 2026-05-04 09:06 | 45.33847 | 15.69484 | 37103 ft | 478 kts | 131° |
| 2026-05-04 09:07 | 45.19218 | 15.93763 | 37128 ft | 459 kts | 131° |
| 2026-05-04 09:08 | 45.17135 | 15.97203 | 37125 ft | 459 kts | 131° |
| 2026-05-04 09:08 | 45.13000 | 16.04023 | 37128 ft | 460 kts | 131° |
| 2026-05-04 09:09 | 45.08827 | 16.10891 | 37132 ft | 461 kts | 131° |
| 2026-05-04 09:09 | 45.04638 | 16.17770 | 37123 ft | 462 kts | 131° |
| 2026-05-04 09:10 | 45.00437 | 16.24653 | 37135 ft | 463 kts | 131° |
| 2026-05-04 09:10 | 44.96236 | 16.31517 | 37140 ft | 465 kts | 131° |
| 2026-05-04 09:11 | 44.91980 | 16.38430 | 37134 ft | 467 kts | 131° |
| 2026-05-04 09:11 | 44.87705 | 16.45352 | 37134 ft | 469 kts | 131° |
| 2026-05-04 09:12 | 44.83416 | 16.52285 | 37141 ft | 470 kts | 131° |
| 2026-05-04 09:14 | 44.66228 | 16.79908 | 37138 ft | 469 kts | 131° |
| 2026-05-04 09:14 | 44.61950 | 16.86741 | 37142 ft | 468 kts | 131° |
| 2026-05-04 09:15 | 44.57648 | 16.93597 | 37136 ft | 468 kts | 131° |
| 2026-05-04 09:15 | 44.53345 | 17.00437 | 37143 ft | 467 kts | 131° |
| 2026-05-04 09:17 | 44.34016 | 17.31012 | 37148 ft | 466 kts | 131° |
| 2026-05-04 09:18 | 44.29708 | 17.37792 | 37156 ft | 467 kts | 131° |
| 2026-05-04 09:18 | 44.25398 | 17.44559 | 37164 ft | 467 kts | 131° |
| 2026-05-04 09:19 | 44.21110 | 17.51272 | 37139 ft | 467 kts | 131° |
| 2026-05-04 09:19 | 44.16784 | 17.58023 | 37153 ft | 467 kts | 131° |
| 2026-05-04 09:20 | 44.12450 | 17.64776 | 37161 ft | 468 kts | 131° |
| 2026-05-04 09:20 | 44.08315 | 17.71769 | 37153 ft | 468 kts | 126° |
| 2026-05-04 09:21 | 44.04376 | 17.78914 | 37171 ft | 469 kts | 126° |
| 2026-05-04 09:21 | 44.00403 | 17.86109 | 37167 ft | 470 kts | 126° |
| 2026-05-04 09:22 | 43.96401 | 17.93272 | 37178 ft | 469 kts | 127° |
| 2026-05-04 09:22 | 43.92381 | 18.00418 | 37173 ft | 470 kts | 127° |
| 2026-05-04 09:23 | 43.88379 | 18.07513 | 37187 ft | 471 kts | 127° |
| 2026-05-04 09:23 | 43.84337 | 18.14662 | 37184 ft | 472 kts | 127° |
| 2026-05-04 09:25 | 43.68115 | 18.43185 | 37176 ft | 472 kts | 126° |
| 2026-05-04 09:26 | 43.64042 | 18.50304 | 37184 ft | 472 kts | 126° |
| 2026-05-04 09:26 | 43.59974 | 18.57396 | 37189 ft | 471 kts | 126° |
| 2026-05-04 09:27 | 43.55903 | 18.64478 | 37179 ft | 471 kts | 126° |
| 2026-05-04 09:27 | 43.51857 | 18.71501 | 37185 ft | 471 kts | 126° |
| 2026-05-04 09:28 | 43.47792 | 18.78538 | 37197 ft | 469 kts | 126° |
| 2026-05-04 09:28 | 43.43715 | 18.85577 | 37189 ft | 470 kts | 126° |
| 2026-05-04 09:29 | 43.39639 | 18.92601 | 37197 ft | 470 kts | 126° |
| 2026-05-04 09:29 | 43.35552 | 18.99629 | 37192 ft | 471 kts | 126° |
| 2026-05-04 09:30 | 43.31485 | 19.06608 | 37185 ft | 471 kts | 126° |
| 2026-05-04 09:30 | 43.27392 | 19.13615 | 37174 ft | 470 kts | 126° |
| 2026-05-04 09:31 | 43.23303 | 19.20598 | 37192 ft | 470 kts | 126° |
| 2026-05-04 09:31 | 43.19205 | 19.27579 | 37193 ft | 470 kts | 127° |
| 2026-05-04 09:32 | 43.15099 | 19.34557 | 37184 ft | 471 kts | 126° |
| 2026-05-04 09:34 | 42.98626 | 19.62391 | 37180 ft | 471 kts | 126° |
| 2026-05-04 09:34 | 42.94520 | 19.69290 | 37188 ft | 472 kts | 126° |
| 2026-05-04 09:35 | 42.90375 | 19.76236 | 37193 ft | 473 kts | 126° |
| 2026-05-04 09:35 | 42.86218 | 19.83187 | 37186 ft | 473 kts | 126° |
| 2026-05-04 09:37 | 42.69598 | 20.10801 | 37191 ft | 471 kts | 126° |
| 2026-05-04 09:38 | 42.65431 | 20.17672 | 37193 ft | 472 kts | 126° |
| 2026-05-04 09:38 | 42.61284 | 20.24500 | 37197 ft | 472 kts | 126° |
| 2026-05-04 09:39 | 42.57110 | 20.31356 | 37198 ft | 471 kts | 126° |
| 2026-05-04 09:39 | 42.52927 | 20.38213 | 37204 ft | 471 kts | 126° |
| 2026-05-04 09:40 | 42.48742 | 20.45057 | 37201 ft | 472 kts | 126° |
| 2026-05-04 09:40 | 42.44582 | 20.51844 | 37210 ft | 472 kts | 126° |
| 2026-05-04 09:42 | 42.27750 | 20.79149 | 37207 ft | 475 kts | 126° |
| 2026-05-04 09:43 | 42.23507 | 20.85993 | 37206 ft | 476 kts | 126° |
| 2026-05-04 09:43 | 42.19249 | 20.92845 | 37203 ft | 477 kts | 126° |
| 2026-05-04 09:44 | 42.14980 | 20.99703 | 37204 ft | 478 kts | 126° |
| 2026-05-04 09:46 | 41.96170 | 21.24778 | 37191 ft | 478 kts | 134° |
| 2026-05-04 09:46 | 41.91314 | 21.30881 | 37194 ft | 478 kts | 133° |
| 2026-05-04 09:47 | 41.86463 | 21.36995 | 37197 ft | 478 kts | 133° |
| 2026-05-04 09:49 | 41.67130 | 21.61213 | 37183 ft | 474 kts | 134° |
| 2026-05-04 09:51 | 41.50248 | 21.82187 | 37172 ft | 475 kts | 134° |
| 2026-05-04 09:51 | 41.45401 | 21.88179 | 37177 ft | 475 kts | 134° |
| 2026-05-04 09:52 | 41.40584 | 21.94122 | 37179 ft | 475 kts | 134° |
| 2026-05-04 09:52 | 41.35731 | 22.00097 | 37177 ft | 475 kts | 134° |
| 2026-05-04 09:53 | 41.30885 | 22.06049 | 37162 ft | 472 kts | 134° |
| 2026-05-04 09:53 | 41.26082 | 22.11938 | 37162 ft | 467 kts | 134° |
| 2026-05-04 09:53 | 41.23690 | 22.14868 | 37030 ft | 468 kts | 134° |
| 2026-05-04 09:54 | 41.21297 | 22.17796 | 36697 ft | 465 kts | 134° |
| 2026-05-04 09:54 | 41.18965 | 22.20643 | 36355 ft | 459 kts | 134° |
| 2026-05-04 09:54 | 41.16624 | 22.23498 | 35980 ft | 456 kts | 134° |
| 2026-05-04 09:54 | 41.14237 | 22.26265 | 35539 ft | 455 kts | 136° |
| 2026-05-04 09:55 | 41.11794 | 22.28927 | 35156 ft | 453 kts | 137° |
| 2026-05-04 09:55 | 41.09338 | 22.31534 | 34749 ft | 452 kts | 138° |
| 2026-05-04 09:55 | 41.06885 | 22.34123 | 34360 ft | 450 kts | 137° |
| 2026-05-04 09:55 | 41.04442 | 22.36708 | 33917 ft | 449 kts | 137° |
| 2026-05-04 09:56 | 41.02041 | 22.39263 | 33506 ft | 447 kts | 137° |
| 2026-05-04 09:56 | 40.99599 | 22.41869 | 33096 ft | 444 kts | 137° |
| 2026-05-04 09:56 | 40.97237 | 22.44397 | 32712 ft | 441 kts | 137° |
| 2026-05-04 09:56 | 40.94861 | 22.46943 | 32333 ft | 438 kts | 137° |
| 2026-05-04 09:57 | 40.92501 | 22.49469 | 31960 ft | 436 kts | 137° |
| 2026-05-04 09:57 | 40.90151 | 22.51985 | 31589 ft | 433 kts | 137° |
| 2026-05-04 09:57 | 40.87809 | 22.54488 | 31212 ft | 431 kts | 137° |
| 2026-05-04 09:57 | 40.85487 | 22.56968 | 30851 ft | 429 kts | 137° |
| 2026-05-04 09:58 | 40.83168 | 22.59442 | 30483 ft | 427 kts | 137° |
| 2026-05-04 09:58 | 40.80865 | 22.61897 | 30103 ft | 425 kts | 137° |
| 2026-05-04 09:58 | 40.78603 | 22.64305 | 29682 ft | 423 kts | 137° |
| 2026-05-04 10:00 | 40.63064 | 22.80790 | 27082 ft | 398 kts | 138° |
| 2026-05-04 10:00 | 40.60916 | 22.83062 | 26721 ft | 395 kts | 139° |
| 2026-05-04 10:02 | 40.46332 | 22.98357 | 24273 ft | 373 kts | 144° |
| 2026-05-04 10:04 | 40.30265 | 23.06796 | 22415 ft | 342 kts | 158° |
| 2026-05-04 10:04 | 40.28049 | 23.07894 | 22152 ft | 339 kts | 158° |
| 2026-05-04 10:04 | 40.25857 | 23.08982 | 21890 ft | 336 kts | 158° |
| 2026-05-04 10:04 | 40.23710 | 23.10048 | 21631 ft | 333 kts | 158° |
| 2026-05-04 10:05 | 40.21545 | 23.11122 | 21373 ft | 331 kts | 158° |
| 2026-05-04 10:05 | 40.19399 | 23.12187 | 21142 ft | 328 kts | 158° |
| 2026-05-04 10:05 | 40.17279 | 23.13239 | 20843 ft | 325 kts | 158° |
| 2026-05-04 10:05 | 40.15170 | 23.14283 | 20520 ft | 323 kts | 158° |
| 2026-05-04 10:06 | 40.13073 | 23.15321 | 20213 ft | 321 kts | 158° |
| 2026-05-04 10:06 | 40.10991 | 23.16351 | 19904 ft | 319 kts | 158° |
| 2026-05-04 10:06 | 40.08923 | 23.17372 | 19644 ft | 316 kts | 158° |
| 2026-05-04 10:08 | 39.96747 | 23.23373 | 17707 ft | 309 kts | 158° |
| 2026-05-04 10:08 | 39.94738 | 23.24361 | 17394 ft | 308 kts | 158° |
| 2026-05-04 10:08 | 39.92735 | 23.25345 | 17079 ft | 307 kts | 158° |
| 2026-05-04 10:08 | 39.90746 | 23.26322 | 16766 ft | 305 kts | 158° |
| 2026-05-04 10:09 | 39.88778 | 23.27283 | 16377 ft | 307 kts | 158° |
| 2026-05-04 10:09 | 39.86787 | 23.28251 | 16064 ft | 306 kts | 158° |
| 2026-05-04 10:09 | 39.84795 | 23.29219 | 15742 ft | 305 kts | 158° |
| 2026-05-04 10:09 | 39.82812 | 23.30182 | 15435 ft | 304 kts | 158° |
| 2026-05-04 10:10 | 39.80828 | 23.31146 | 15119 ft | 304 kts | 158° |
| 2026-05-04 10:10 | 39.78847 | 23.32108 | 14808 ft | 303 kts | 158° |
| 2026-05-04 10:10 | 39.76872 | 23.33067 | 14501 ft | 303 kts | 158° |
| 2026-05-04 10:10 | 39.74898 | 23.34024 | 14179 ft | 303 kts | 158° |
| 2026-05-04 10:11 | 39.72949 | 23.34969 | 13855 ft | 304 kts | 158° |
| 2026-05-04 10:11 | 39.70948 | 23.35946 | 13407 ft | 307 kts | 157° |
| 2026-05-04 10:11 | 39.68952 | 23.36922 | 13090 ft | 306 kts | 157° |
| 2026-05-04 10:11 | 39.66963 | 23.37895 | 12768 ft | 305 kts | 157° |
| 2026-05-04 10:12 | 39.64975 | 23.38866 | 12454 ft | 304 kts | 157° |
| 2026-05-04 10:12 | 39.63000 | 23.39831 | 12144 ft | 303 kts | 157° |
| 2026-05-04 10:12 | 39.61031 | 23.40792 | 11841 ft | 302 kts | 157° |
| 2026-05-04 10:12 | 39.59066 | 23.41751 | 11537 ft | 301 kts | 157° |
| 2026-05-04 10:13 | 39.57109 | 23.42705 | 11239 ft | 300 kts | 157° |
| 2026-05-04 10:13 | 39.55190 | 23.43640 | 10940 ft | 299 kts | 158° |
| 2026-05-04 10:13 | 39.53250 | 23.44585 | 10650 ft | 298 kts | 157° |
| 2026-05-04 10:13 | 39.51313 | 23.45528 | 10354 ft | 297 kts | 157° |
| 2026-05-04 10:14 | 39.49405 | 23.46456 | 10210 ft | 290 kts | 157° |
| 2026-05-04 10:14 | 39.47523 | 23.47371 | 9901 ft | 289 kts | 158° |
| 2026-05-04 10:16 | 39.34624 | 23.53617 | 7921 ft | 278 kts | 159° |
| 2026-05-04 10:16 | 39.32818 | 23.54488 | 7641 ft | 276 kts | 159° |
| 2026-05-04 10:16 | 39.31025 | 23.55353 | 7367 ft | 275 kts | 158° |
| 2026-05-04 10:16 | 39.29237 | 23.56215 | 7107 ft | 274 kts | 159° |
| 2026-05-04 10:17 | 39.27457 | 23.57073 | 6821 ft | 273 kts | 159° |
| 2026-05-04 10:17 | 39.25679 | 23.57930 | 6544 ft | 272 kts | 159° |
| 2026-05-04 10:19 | 39.13357 | 23.58566 | 4616 ft | 268 kts | 210° |
| 2026-05-04 10:19 | 39.11703 | 23.57459 | 4341 ft | 267 kts | 210° |
| 2026-05-04 10:19 | 39.10055 | 23.56369 | 4083 ft | 265 kts | 209° |
| 2026-05-04 10:19 | 39.08461 | 23.55322 | 3972 ft | 257 kts | 209° |
| 2026-05-04 10:20 | 39.06890 | 23.54295 | 3856 ft | 249 kts | 208° |
| 2026-05-04 10:20 | 39.05369 | 23.53304 | 3650 ft | 241 kts | 208° |
| 2026-05-04 10:20 | 39.04006 | 23.52171 | 3487 ft | 226 kts | 233° |
| 2026-05-04 10:20 | 39.03482 | 23.50446 | 3410 ft | 197 kts | 276° |
| 2026-05-04 10:21 | 39.03972 | 23.48913 | 2986 ft | 189 kts | 316° |
| 2026-05-04 10:21 | 39.05122 | 23.48019 | 2407 ft | 194 kts | 341° |
| 2026-05-04 10:21 | 39.06403 | 23.47637 | 2153 ft | 184 kts | 348° |
| 2026-05-04 10:21 | 39.07621 | 23.47524 | 1910 ft | 174 kts | 7° |
| 2026-05-04 10:22 | 39.09824 | 23.48041 | 1533 ft | 146 kts | 9° |
| 2026-05-04 10:22 | 39.10762 | 23.48211 | 1468 ft | 130 kts | 5° |
| 2026-05-04 10:22 | 39.11671 | 23.48305 | 1365 ft | 133 kts | 4° |
| 2026-05-04 10:23 | 39.12590 | 23.48400 | 1209 ft | 139 kts | 5° |
| 2026-05-04 10:23 | 39.13539 | 23.48566 | 864 ft | 138 kts | 13° |
| 2026-05-04 10:25 | 39.18441 | 23.50692 | 60 ft | 20 kts | 19° |
| 2026-05-04 10:25 | 39.18521 | 23.50715 | 60 ft | 5 kts | 84° |
| 2026-05-04 10:25 | 39.18499 | 23.50733 | 55 ft | 4 kts | 196° |
| 2026-05-04 10:25 | 39.18463 | 23.50712 | 55 ft | 6 kts | 204° |
| 2026-05-04 10:26 | 39.18424 | 23.50690 | 60 ft | 6 kts | 202° |
| 2026-05-04 10:26 | 39.18375 | 23.50664 | 58 ft | 8 kts | 199° |
| 2026-05-04 10:26 | 39.18319 | 23.50639 | 50 ft | 9 kts | 199° |
| 2026-05-04 10:26 | 39.18262 | 23.50613 | 56 ft | 11 kts | 199° |
| 2026-05-04 10:27 | 39.18164 | 23.50568 | 46 ft | 17 kts | 199° |
| 2026-05-04 10:27 | 39.18045 | 23.50513 | 47 ft | 18 kts | 200° |
| 2026-05-04 10:27 | 39.17950 | 23.50463 | 43 ft | 8 kts | 225° |
| 2026-05-04 10:27 | 39.17926 | 23.50391 | 41 ft | 5 kts | 254° |
| 2026-05-04 10:28 | 39.17923 | 23.50352 | 40 ft | 6 kts | 278° |
| 2026-05-04 10:28 | 39.17938 | 23.50292 | 37 ft | 6 kts | 294° |
| 2026-05-04 10:28 | 39.17947 | 23.50264 | 38 ft | 2 kts | 290° |
| 2026-05-04 10:28 | 39.17948 | 23.50260 | 38 ft | 0 kts | 290° |